sensor_id;sensor_type;location;lat;lon;timestamp;noise_LAeq;noise_LA_min;noise_LA_max;noise_LA01;noise_LA95
74292;Laerm;62687;55.738;37.516;2022-11-03T00:02:24;65.24;52.80;81.06;;
74292;Laerm;62687;55.738;37.516;2022-11-03T00:05:08;64.07;53.49;70.99;;
74292;Laerm;62687;55.738;37.516;2022-11-03T00:08:12;64.10;51.86;71.65;;
74292;Laerm;62687;55.738;37.516;2022-11-03T00:11:03;66.33;52.76;74.75;;
74292;Laerm;62687;55.738;37.516;2022-11-03T00:13:48;64.51;51.98;72.90;;
74292;Laerm;62687;55.738;37.516;2022-11-03T00:16:32;65.40;52.32;71.71;;
74292;Laerm;62687;55.738;37.516;2022-11-03T00:19:16;64.18;54.84;73.67;;
74292;Laerm;62687;55.738;37.516;2022-11-03T00:22:01;64.02;51.62;73.37;;
74292;Laerm;62687;55.738;37.516;2022-11-03T00:24:45;64.94;53.71;74.72;;
74292;Laerm;62687;55.738;37.516;2022-11-03T00:27:29;64.27;57.30;71.42;;
74292;Laerm;62687;55.738;37.516;2022-11-03T00:30:13;63.21;53.92;72.43;;
74292;Laerm;62687;55.738;37.516;2022-11-03T00:32:57;63.98;51.94;71.68;;
74292;Laerm;62687;55.738;37.516;2022-11-03T00:35:41;64.61;53.79;74.53;;
74292;Laerm;62687;55.738;37.516;2022-11-03T00:38:27;63.74;53.63;71.31;;
74292;Laerm;62687;55.738;37.516;2022-11-03T00:41:12;66.23;54.88;79.06;;
74292;Laerm;62687;55.738;37.516;2022-11-03T00:43:56;65.40;56.58;73.39;;
74292;Laerm;62687;55.738;37.516;2022-11-03T00:46:41;63.07;54.41;73.37;;
74292;Laerm;62687;55.738;37.516;2022-11-03T00:49:25;68.61;56.19;88.70;;
74292;Laerm;62687;55.738;37.516;2022-11-03T00:52:08;66.04;56.20;77.34;;
74292;Laerm;62687;55.738;37.516;2022-11-03T00:54:53;64.85;57.66;69.99;;
74292;Laerm;62687;55.738;37.516;2022-11-03T00:57:37;64.83;54.95;73.45;;
74292;Laerm;62687;55.738;37.516;2022-11-03T01:00:24;64.08;56.93;71.50;;
74292;Laerm;62687;55.738;37.516;2022-11-03T01:03:08;63.90;51.84;69.96;;
74292;Laerm;62687;55.738;37.516;2022-11-03T01:05:52;63.82;55.35;71.83;;
74292;Laerm;62687;55.738;37.516;2022-11-03T01:08:55;65.48;54.78;76.47;;
74292;Laerm;62687;55.738;37.516;2022-11-03T01:11:43;63.44;54.83;71.12;;
74292;Laerm;62687;55.738;37.516;2022-11-03T01:14:41;64.35;52.45;71.92;;
74292;Laerm;62687;55.738;37.516;2022-11-03T01:17:28;63.58;51.52;71.47;;
74292;Laerm;62687;55.738;37.516;2022-11-03T01:20:12;65.08;57.30;72.46;;
74292;Laerm;62687;55.738;37.516;2022-11-03T01:22:56;64.86;55.62;72.67;;
74292;Laerm;62687;55.738;37.516;2022-11-03T01:25:40;64.50;55.73;73.56;;
74292;Laerm;62687;55.738;37.516;2022-11-03T01:28:24;68.24;56.22;84.96;;
74292;Laerm;62687;55.738;37.516;2022-11-03T01:31:17;65.04;57.68;75.50;;
74292;Laerm;62687;55.738;37.516;2022-11-03T01:34:01;65.54;54.64;75.07;;
74292;Laerm;62687;55.738;37.516;2022-11-03T01:36:45;65.18;57.73;72.13;;
74292;Laerm;62687;55.738;37.516;2022-11-03T01:39:30;65.29;57.04;75.42;;
74292;Laerm;62687;55.738;37.516;2022-11-03T01:42:14;64.89;54.74;73.17;;
74292;Laerm;62687;55.738;37.516;2022-11-03T01:45:00;65.71;57.59;72.94;;
74292;Laerm;62687;55.738;37.516;2022-11-03T01:47:47;67.58;54.75;77.63;;
74292;Laerm;62687;55.738;37.516;2022-11-03T01:50:31;65.26;55.68;71.39;;
74292;Laerm;62687;55.738;37.516;2022-11-03T01:53:16;65.02;57.16;71.81;;
74292;Laerm;62687;55.738;37.516;2022-11-03T01:56:02;66.06;55.70;82.15;;
74292;Laerm;62687;55.738;37.516;2022-11-03T01:58:49;64.81;54.94;72.57;;
74292;Laerm;62687;55.738;37.516;2022-11-03T02:01:34;68.04;56.43;77.38;;
74292;Laerm;62687;55.738;37.516;2022-11-03T02:04:26;66.13;57.45;79.22;;
74292;Laerm;62687;55.738;37.516;2022-11-03T02:09:56;66.89;57.61;79.94;;
74292;Laerm;62687;55.738;37.516;2022-11-03T02:12:41;66.07;56.75;76.60;;
74292;Laerm;62687;55.738;37.516;2022-11-03T02:15:27;67.86;57.06;73.62;;
74292;Laerm;62687;55.738;37.516;2022-11-03T02:18:12;68.85;57.61;80.41;;
74292;Laerm;62687;55.738;37.516;2022-11-03T02:21:28;66.86;57.48;74.37;;
74292;Laerm;62687;55.738;37.516;2022-11-03T02:27:12;66.42;58.24;75.22;;
74292;Laerm;62687;55.738;37.516;2022-11-03T02:29:56;67.76;54.79;76.92;;
74292;Laerm;62687;55.738;37.516;2022-11-03T02:35:45;67.00;58.40;72.74;;
74292;Laerm;62687;55.738;37.516;2022-11-03T02:38:33;67.39;59.46;73.93;;
74292;Laerm;62687;55.738;37.516;2022-11-03T02:41:20;68.11;60.90;77.58;;
74292;Laerm;62687;55.738;37.516;2022-11-03T02:44:17;67.53;58.28;75.16;;
74292;Laerm;62687;55.738;37.516;2022-11-03T02:47:07;67.04;56.16;74.80;;
74292;Laerm;62687;55.738;37.516;2022-11-03T02:49:52;67.75;61.54;73.97;;
74292;Laerm;62687;55.738;37.516;2022-11-03T02:52:42;67.00;60.98;74.02;;
74292;Laerm;62687;55.738;37.516;2022-11-03T02:55:38;67.33;60.36;73.22;;
74292;Laerm;62687;55.738;37.516;2022-11-03T02:58:33;67.96;61.89;74.43;;
74292;Laerm;62687;55.738;37.516;2022-11-03T03:01:30;67.28;60.91;73.31;;
74292;Laerm;62687;55.738;37.516;2022-11-03T03:04:25;67.63;61.69;74.71;;
74292;Laerm;62687;55.738;37.516;2022-11-03T03:07:21;68.61;61.52;74.13;;
74292;Laerm;62687;55.738;37.516;2022-11-03T03:10:07;67.82;61.13;74.00;;
74292;Laerm;62687;55.738;37.516;2022-11-03T03:12:56;69.07;63.88;73.79;;
74292;Laerm;62687;55.738;37.516;2022-11-03T03:15:49;70.07;63.76;75.02;;
74292;Laerm;62687;55.738;37.516;2022-11-03T03:18:46;69.65;64.86;75.73;;
74292;Laerm;62687;55.738;37.516;2022-11-03T03:21:37;69.34;63.21;74.74;;
74292;Laerm;62687;55.738;37.516;2022-11-03T03:27:20;69.68;63.15;80.25;;
74292;Laerm;62687;55.738;37.516;2022-11-03T03:30:06;70.33;62.73;74.64;;
74292;Laerm;62687;55.738;37.516;2022-11-03T03:32:52;70.57;64.33;76.84;;
74292;Laerm;62687;55.738;37.516;2022-11-03T03:35:39;70.07;64.18;74.29;;
74292;Laerm;62687;55.738;37.516;2022-11-03T03:38:31;71.12;65.48;77.33;;
74292;Laerm;62687;55.738;37.516;2022-11-03T03:41:17;70.69;65.07;77.86;;
74292;Laerm;62687;55.738;37.516;2022-11-03T03:44:06;71.32;66.31;76.61;;
74292;Laerm;62687;55.738;37.516;2022-11-03T03:46:58;70.74;65.31;77.57;;
74292;Laerm;62687;55.738;37.516;2022-11-03T03:49:44;71.14;65.25;76.31;;
74292;Laerm;62687;55.738;37.516;2022-11-03T03:52:28;71.05;66.90;74.91;;
74292;Laerm;62687;55.738;37.516;2022-11-03T03:55:16;71.37;66.32;76.71;;
74292;Laerm;62687;55.738;37.516;2022-11-03T03:58:02;70.96;66.16;75.32;;
74292;Laerm;62687;55.738;37.516;2022-11-03T04:00:47;71.86;67.40;76.71;;
74292;Laerm;62687;55.738;37.516;2022-11-03T04:03:31;71.69;66.88;75.55;;
74292;Laerm;62687;55.738;37.516;2022-11-03T04:06:15;71.25;65.19;75.32;;
74292;Laerm;62687;55.738;37.516;2022-11-03T04:08:59;71.90;67.34;79.75;;
74292;Laerm;62687;55.738;37.516;2022-11-03T04:11:43;72.00;66.50;76.77;;
74292;Laerm;62687;55.738;37.516;2022-11-03T04:14:46;71.93;67.35;76.44;;
74292;Laerm;62687;55.738;37.516;2022-11-03T04:17:49;72.30;68.02;76.06;;
74292;Laerm;62687;55.738;37.516;2022-11-03T04:20:52;72.12;67.48;84.93;;
74292;Laerm;62687;55.738;37.516;2022-11-03T04:23:55;72.34;67.96;76.84;;
74292;Laerm;62687;55.738;37.516;2022-11-03T04:26:39;71.65;66.40;75.84;;
74292;Laerm;62687;55.738;37.516;2022-11-03T04:29:23;72.17;68.02;76.47;;
74292;Laerm;62687;55.738;37.516;2022-11-03T04:32:16;72.24;66.30;77.22;;
74292;Laerm;62687;55.738;37.516;2022-11-03T04:35:00;72.08;68.06;75.78;;
74292;Laerm;62687;55.738;37.516;2022-11-03T04:37:49;72.08;66.29;82.98;;
74292;Laerm;62687;55.738;37.516;2022-11-03T04:40:34;72.24;67.25;75.84;;
74292;Laerm;62687;55.738;37.516;2022-11-03T04:43:20;72.40;68.01;76.47;;
74292;Laerm;62687;55.738;37.516;2022-11-03T04:46:04;72.47;68.36;76.01;;
74292;Laerm;62687;55.738;37.516;2022-11-03T04:48:53;72.28;68.19;76.31;;
74292;Laerm;62687;55.738;37.516;2022-11-03T04:51:38;72.34;67.57;76.45;;
74292;Laerm;62687;55.738;37.516;2022-11-03T04:54:22;72.54;67.16;81.08;;
74292;Laerm;62687;55.738;37.516;2022-11-03T04:57:14;72.82;67.48;84.54;;
74292;Laerm;62687;55.738;37.516;2022-11-03T04:59:59;72.13;66.24;76.16;;
74292;Laerm;62687;55.738;37.516;2022-11-03T05:02:47;72.21;67.47;78.90;;
74292;Laerm;62687;55.738;37.516;2022-11-03T05:05:32;72.12;66.71;76.16;;
74292;Laerm;62687;55.738;37.516;2022-11-03T05:08:17;72.35;68.05;77.97;;
74292;Laerm;62687;55.738;37.516;2022-11-03T05:11:18;72.77;68.62;78.17;;
74292;Laerm;62687;55.738;37.516;2022-11-03T05:14:32;72.56;68.73;84.37;;
74292;Laerm;62687;55.738;37.516;2022-11-03T05:17:26;72.85;68.32;76.75;;
74292;Laerm;62687;55.738;37.516;2022-11-03T05:20:33;72.57;66.17;81.99;;
74292;Laerm;62687;55.738;37.516;2022-11-03T05:23:20;72.99;68.44;82.26;;
74292;Laerm;62687;55.738;37.516;2022-11-03T05:26:11;72.46;67.97;78.70;;
74292;Laerm;62687;55.738;37.516;2022-11-03T05:29:03;72.70;68.60;82.54;;
74292;Laerm;62687;55.738;37.516;2022-11-03T05:31:53;72.66;68.09;84.76;;
74292;Laerm;62687;55.738;37.516;2022-11-03T05:34:44;72.24;67.10;88.70;;
74292;Laerm;62687;55.738;37.516;2022-11-03T05:37:32;72.74;68.93;77.24;;
74292;Laerm;62687;55.738;37.516;2022-11-03T05:40:23;72.74;67.75;80.22;;
74292;Laerm;62687;55.738;37.516;2022-11-03T05:43:10;72.78;69.05;78.49;;
74292;Laerm;62687;55.738;37.516;2022-11-03T05:45:57;73.17;68.12;84.06;;
74292;Laerm;62687;55.738;37.516;2022-11-03T05:48:44;72.59;67.55;79.84;;
74292;Laerm;62687;55.738;37.516;2022-11-03T05:51:33;72.05;68.31;82.10;;
74292;Laerm;62687;55.738;37.516;2022-11-03T05:54:26;72.10;66.96;79.53;;
74292;Laerm;62687;55.738;37.516;2022-11-03T05:57:13;72.21;67.06;76.76;;
74292;Laerm;62687;55.738;37.516;2022-11-03T05:59:57;73.12;67.82;90.04;;
74292;Laerm;62687;55.738;37.516;2022-11-03T06:02:42;72.52;68.74;77.32;;
74292;Laerm;62687;55.738;37.516;2022-11-03T06:05:26;73.32;68.97;90.18;;
74292;Laerm;62687;55.738;37.516;2022-11-03T06:08:37;73.34;69.07;78.47;;
74292;Laerm;62687;55.738;37.516;2022-11-03T06:11:27;72.63;67.66;77.23;;
74292;Laerm;62687;55.738;37.516;2022-11-03T06:14:20;72.79;67.95;81.68;;
74292;Laerm;62687;55.738;37.516;2022-11-03T06:17:06;72.34;66.96;76.49;;
74292;Laerm;62687;55.738;37.516;2022-11-03T06:19:55;72.37;67.51;86.32;;
74292;Laerm;62687;55.738;37.516;2022-11-03T06:22:40;72.07;68.02;79.81;;
74292;Laerm;62687;55.738;37.516;2022-11-03T06:25:30;72.00;67.98;75.43;;
74292;Laerm;62687;55.738;37.516;2022-11-03T06:28:24;72.10;66.92;76.20;;
74292;Laerm;62687;55.738;37.516;2022-11-03T06:31:19;71.80;66.11;75.68;;
74292;Laerm;62687;55.738;37.516;2022-11-03T06:34:17;73.12;68.01;90.42;;
74292;Laerm;62687;55.738;37.516;2022-11-03T06:37:12;72.13;67.15;81.87;;
74292;Laerm;62687;55.738;37.516;2022-11-03T06:40:35;71.82;67.62;75.89;;
74292;Laerm;62687;55.738;37.516;2022-11-03T06:43:21;72.10;67.48;79.11;;
74292;Laerm;62687;55.738;37.516;2022-11-03T06:46:21;72.48;67.04;77.57;;
74292;Laerm;62687;55.738;37.516;2022-11-03T06:49:30;71.89;67.14;83.05;;
74292;Laerm;62687;55.738;37.516;2022-11-03T06:52:31;72.75;68.42;84.35;;
74292;Laerm;62687;55.738;37.516;2022-11-03T06:55:30;72.73;69.12;79.04;;
74292;Laerm;62687;55.738;37.516;2022-11-03T06:58:27;72.71;68.24;83.82;;
74292;Laerm;62687;55.738;37.516;2022-11-03T07:01:14;72.54;69.04;75.98;;
74292;Laerm;62687;55.738;37.516;2022-11-03T07:04:12;72.79;68.30;76.76;;
74292;Laerm;62687;55.738;37.516;2022-11-03T07:07:00;72.69;67.98;79.51;;
74292;Laerm;62687;55.738;37.516;2022-11-03T07:09:45;72.79;67.28;78.15;;
74292;Laerm;62687;55.738;37.516;2022-11-03T07:12:29;72.50;67.13;78.47;;
74292;Laerm;62687;55.738;37.516;2022-11-03T07:15:34;72.83;68.95;77.20;;
74292;Laerm;62687;55.738;37.516;2022-11-03T07:18:43;72.69;68.81;76.75;;
74292;Laerm;62687;55.738;37.516;2022-11-03T07:24:35;72.71;68.71;77.23;;
74292;Laerm;62687;55.738;37.516;2022-11-03T07:27:30;72.53;69.05;75.69;;
74292;Laerm;62687;55.738;37.516;2022-11-03T07:30:22;72.82;68.18;76.81;;
74292;Laerm;62687;55.738;37.516;2022-11-03T07:33:18;72.64;68.73;78.54;;
74292;Laerm;62687;55.738;37.516;2022-11-03T07:36:05;72.26;68.74;75.61;;
74292;Laerm;62687;55.738;37.516;2022-11-03T07:38:51;72.08;67.83;77.25;;
74292;Laerm;62687;55.738;37.516;2022-11-03T07:41:36;72.37;67.93;76.26;;
74292;Laerm;62687;55.738;37.516;2022-11-03T07:44:20;72.47;68.82;76.13;;
74292;Laerm;62687;55.738;37.516;2022-11-03T07:47:12;72.63;68.52;80.42;;
74292;Laerm;62687;55.738;37.516;2022-11-03T07:49:58;72.04;67.75;75.17;;
74292;Laerm;62687;55.738;37.516;2022-11-03T07:52:42;72.61;68.11;79.61;;
74292;Laerm;62687;55.738;37.516;2022-11-03T07:55:26;72.21;69.12;76.01;;
74292;Laerm;62687;55.738;37.516;2022-11-03T07:58:23;72.60;68.55;76.88;;
74292;Laerm;62687;55.738;37.516;2022-11-03T08:04:15;72.46;67.36;77.56;;
74292;Laerm;62687;55.738;37.516;2022-11-03T08:07:00;72.30;68.81;76.85;;
74292;Laerm;62687;55.738;37.516;2022-11-03T08:09:44;72.43;68.80;76.33;;
74292;Laerm;62687;55.738;37.516;2022-11-03T08:12:28;72.47;68.55;76.17;;
74292;Laerm;62687;55.738;37.516;2022-11-03T08:15:12;72.37;68.47;76.63;;
74292;Laerm;62687;55.738;37.516;2022-11-03T08:17:56;72.75;67.75;83.75;;
74292;Laerm;62687;55.738;37.516;2022-11-03T08:20:40;72.48;68.80;78.49;;
74292;Laerm;62687;55.738;37.516;2022-11-03T08:23:24;72.32;68.49;77.03;;
74292;Laerm;62687;55.738;37.516;2022-11-03T08:26:08;72.65;68.38;76.74;;
74292;Laerm;62687;55.738;37.516;2022-11-03T08:28:52;72.09;67.93;76.05;;
74292;Laerm;62687;55.738;37.516;2022-11-03T08:31:36;72.26;68.06;76.32;;
74292;Laerm;62687;55.738;37.516;2022-11-03T08:34:20;72.16;68.07;75.93;;
74292;Laerm;62687;55.738;37.516;2022-11-03T08:37:04;72.22;67.60;77.13;;
74292;Laerm;62687;55.738;37.516;2022-11-03T08:39:48;72.74;68.11;78.75;;
74292;Laerm;62687;55.738;37.516;2022-11-03T08:42:32;72.47;67.69;84.30;;
74292;Laerm;62687;55.738;37.516;2022-11-03T08:45:17;72.22;68.59;75.87;;
74292;Laerm;62687;55.738;37.516;2022-11-03T08:48:01;72.21;68.39;78.62;;
74292;Laerm;62687;55.738;37.516;2022-11-03T08:50:45;72.47;68.60;76.41;;
74292;Laerm;62687;55.738;37.516;2022-11-03T08:53:30;72.62;69.32;78.30;;
74292;Laerm;62687;55.738;37.516;2022-11-03T08:56:14;72.73;68.55;76.49;;
74292;Laerm;62687;55.738;37.516;2022-11-03T08:58:59;72.27;68.09;78.29;;
74292;Laerm;62687;55.738;37.516;2022-11-03T09:01:42;72.63;68.58;78.01;;
74292;Laerm;62687;55.738;37.516;2022-11-03T09:04:27;72.34;68.20;77.90;;
74292;Laerm;62687;55.738;37.516;2022-11-03T09:07:12;72.84;68.72;79.21;;
74292;Laerm;62687;55.738;37.516;2022-11-03T09:09:56;72.73;68.71;76.67;;
74292;Laerm;62687;55.738;37.516;2022-11-03T09:12:39;72.62;68.71;77.39;;
74292;Laerm;62687;55.738;37.516;2022-11-03T09:15:23;72.37;67.38;76.55;;
74292;Laerm;62687;55.738;37.516;2022-11-03T09:18:08;72.97;68.76;83.63;;
74292;Laerm;62687;55.738;37.516;2022-11-03T09:20:51;72.41;68.67;77.91;;
74292;Laerm;62687;55.738;37.516;2022-11-03T09:23:35;72.33;68.98;76.00;;
74292;Laerm;62687;55.738;37.516;2022-11-03T09:26:20;72.50;68.49;76.16;;
74292;Laerm;62687;55.738;37.516;2022-11-03T09:29:04;72.11;67.90;75.92;;
74292;Laerm;62687;55.738;37.516;2022-11-03T09:31:48;72.52;68.72;78.52;;
74292;Laerm;62687;55.738;37.516;2022-11-03T09:34:32;72.76;68.09;81.74;;
74292;Laerm;62687;55.738;37.516;2022-11-03T09:37:16;72.73;69.46;82.01;;
74292;Laerm;62687;55.738;37.516;2022-11-03T09:40:00;72.53;67.43;80.69;;
74292;Laerm;62687;55.738;37.516;2022-11-03T09:42:45;72.06;67.42;77.32;;
74292;Laerm;62687;55.738;37.516;2022-11-03T09:45:28;72.37;69.05;76.98;;
74292;Laerm;62687;55.738;37.516;2022-11-03T09:48:12;72.39;68.52;76.08;;
74292;Laerm;62687;55.738;37.516;2022-11-03T09:50:57;72.55;68.85;77.70;;
74292;Laerm;62687;55.738;37.516;2022-11-03T09:53:41;72.91;69.11;77.03;;
74292;Laerm;62687;55.738;37.516;2022-11-03T09:56:26;72.32;68.41;76.39;;
74292;Laerm;62687;55.738;37.516;2022-11-03T09:59:19;72.67;69.05;76.05;;
74292;Laerm;62687;55.738;37.516;2022-11-03T10:02:19;72.70;69.40;81.62;;
74292;Laerm;62687;55.738;37.516;2022-11-03T10:05:05;72.45;68.28;76.94;;
74292;Laerm;62687;55.738;37.516;2022-11-03T10:07:50;72.81;69.18;78.73;;
74292;Laerm;62687;55.738;37.516;2022-11-03T10:10:35;72.83;69.30;77.24;;
74292;Laerm;62687;55.738;37.516;2022-11-03T10:13:36;72.90;68.33;76.72;;
74292;Laerm;62687;55.738;37.516;2022-11-03T10:16:23;72.84;69.09;77.43;;
74292;Laerm;62687;55.738;37.516;2022-11-03T10:19:11;71.91;68.57;75.29;;
74292;Laerm;62687;55.738;37.516;2022-11-03T10:21:55;72.05;67.73;75.33;;
74292;Laerm;62687;55.738;37.516;2022-11-03T10:24:40;72.80;68.86;76.81;;
74292;Laerm;62687;55.738;37.516;2022-11-03T10:27:24;72.41;68.84;76.38;;
74292;Laerm;62687;55.738;37.516;2022-11-03T10:30:10;72.46;68.92;77.99;;
74292;Laerm;62687;55.738;37.516;2022-11-03T10:32:55;72.40;68.16;76.99;;
74292;Laerm;62687;55.738;37.516;2022-11-03T10:35:39;72.15;67.45;78.30;;
74292;Laerm;62687;55.738;37.516;2022-11-03T10:38:31;72.32;68.63;79.59;;
74292;Laerm;62687;55.738;37.516;2022-11-03T10:41:20;72.58;68.14;77.13;;
74292;Laerm;62687;55.738;37.516;2022-11-03T10:44:18;72.82;69.31;78.36;;
74292;Laerm;62687;55.738;37.516;2022-11-03T10:47:03;72.03;68.21;75.85;;
74292;Laerm;62687;55.738;37.516;2022-11-03T10:49:49;72.38;68.35;75.64;;
74292;Laerm;62687;55.738;37.516;2022-11-03T10:52:33;72.98;68.93;80.33;;
74292;Laerm;62687;55.738;37.516;2022-11-03T10:55:18;72.75;69.15;78.67;;
74292;Laerm;62687;55.738;37.516;2022-11-03T10:58:02;72.83;68.89;78.43;;
74292;Laerm;62687;55.738;37.516;2022-11-03T11:00:46;73.47;68.75;87.34;;
74292;Laerm;62687;55.738;37.516;2022-11-03T11:03:31;72.64;68.10;80.10;;
74292;Laerm;62687;55.738;37.516;2022-11-03T11:09:12;72.59;68.11;83.43;;
74292;Laerm;62687;55.738;37.516;2022-11-03T11:12:19;72.87;69.54;79.57;;
74292;Laerm;62687;55.738;37.516;2022-11-03T11:24:08;72.94;69.12;78.97;;
74292;Laerm;62687;55.738;37.516;2022-11-03T11:26:52;73.73;68.21;87.22;;
74292;Laerm;62687;55.738;37.516;2022-11-03T11:29:36;72.08;68.22;75.65;;
74292;Laerm;62687;55.738;37.516;2022-11-03T11:38:43;72.38;67.16;76.60;;
74292;Laerm;62687;55.738;37.516;2022-11-03T11:42:06;72.31;67.79;78.76;;
74292;Laerm;62687;55.738;37.516;2022-11-03T11:44:57;72.89;68.15;84.06;;
74292;Laerm;62687;55.738;37.516;2022-11-03T11:47:47;72.44;69.09;79.74;;
74292;Laerm;62687;55.738;37.516;2022-11-03T11:50:32;72.54;68.16;83.83;;
74292;Laerm;62687;55.738;37.516;2022-11-03T11:53:21;74.17;68.82;88.05;;
74292;Laerm;62687;55.738;37.516;2022-11-03T11:56:09;72.90;68.40;81.38;;
74292;Laerm;62687;55.738;37.516;2022-11-03T11:58:54;72.70;69.58;76.49;;
74292;Laerm;62687;55.738;37.516;2022-11-03T12:01:38;71.89;68.39;85.76;;
74292;Laerm;62687;55.738;37.516;2022-11-03T12:04:26;72.40;68.18;78.98;;
74292;Laerm;62687;55.738;37.516;2022-11-03T12:07:14;71.76;68.21;75.28;;
74292;Laerm;62687;55.738;37.516;2022-11-03T12:10:15;70.78;65.26;85.67;;
74292;Laerm;62687;55.738;37.516;2022-11-03T12:12:59;70.66;67.08;75.42;;
74292;Laerm;62687;55.738;37.516;2022-11-03T12:15:55;70.90;67.18;74.36;;
74292;Laerm;62687;55.738;37.516;2022-11-03T12:18:41;69.66;65.47;75.48;;
74292;Laerm;62687;55.738;37.516;2022-11-03T12:21:48;71.20;67.45;80.85;;
74292;Laerm;62687;55.738;37.516;2022-11-03T12:30:19;71.04;66.94;78.61;;
74292;Laerm;62687;55.738;37.516;2022-11-03T12:33:04;70.91;66.08;79.00;;
74292;Laerm;62687;55.738;37.516;2022-11-03T12:35:48;71.40;66.16;84.23;;
74292;Laerm;62687;55.738;37.516;2022-11-03T12:38:32;69.49;65.22;74.09;;
74292;Laerm;62687;55.738;37.516;2022-11-03T12:41:16;70.53;67.31;76.03;;
74292;Laerm;62687;55.738;37.516;2022-11-03T12:44:07;70.61;66.63;75.50;;
74292;Laerm;62687;55.738;37.516;2022-11-03T12:46:52;72.09;68.22;80.63;;
74292;Laerm;62687;55.738;37.516;2022-11-03T12:49:36;71.47;68.18;79.00;;
74292;Laerm;62687;55.738;37.516;2022-11-03T12:52:20;71.32;67.73;74.87;;
74292;Laerm;62687;55.738;37.516;2022-11-03T12:55:04;70.54;66.93;75.86;;
74292;Laerm;62687;55.738;37.516;2022-11-03T12:57:48;71.29;67.28;89.12;;
74292;Laerm;62687;55.738;37.516;2022-11-03T13:00:32;71.19;67.99;78.53;;
74292;Laerm;62687;55.738;37.516;2022-11-03T13:03:16;71.56;68.49;74.88;;
74292;Laerm;62687;55.738;37.516;2022-11-03T13:06:01;71.43;67.80;80.67;;
74292;Laerm;62687;55.738;37.516;2022-11-03T13:08:47;71.79;68.74;78.56;;
74292;Laerm;62687;55.738;37.516;2022-11-03T13:11:32;71.40;68.22;75.27;;
74292;Laerm;62687;55.738;37.516;2022-11-03T13:14:35;71.33;66.34;83.61;;
74292;Laerm;62687;55.738;37.516;2022-11-03T13:17:19;70.59;66.98;73.73;;
74292;Laerm;62687;55.738;37.516;2022-11-03T13:20:03;70.50;65.81;75.10;;
74292;Laerm;62687;55.738;37.516;2022-11-03T13:22:48;71.44;67.35;83.21;;
74292;Laerm;62687;55.738;37.516;2022-11-03T13:25:33;70.51;66.58;75.16;;
74292;Laerm;62687;55.738;37.516;2022-11-03T13:28:18;71.26;67.35;89.31;;
74292;Laerm;62687;55.738;37.516;2022-11-03T13:31:03;70.49;67.10;81.13;;
74292;Laerm;62687;55.738;37.516;2022-11-03T13:33:47;71.50;67.06;76.87;;
74292;Laerm;62687;55.738;37.516;2022-11-03T13:36:31;70.04;66.55;74.21;;
74292;Laerm;62687;55.738;37.516;2022-11-03T13:39:15;69.44;64.81;74.84;;
74292;Laerm;62687;55.738;37.516;2022-11-03T13:41:59;69.43;65.27;78.74;;
74292;Laerm;62687;55.738;37.516;2022-11-03T13:44:44;68.89;64.43;80.12;;
74292;Laerm;62687;55.738;37.516;2022-11-03T13:47:27;68.64;64.72;77.23;;
74292;Laerm;62687;55.738;37.516;2022-11-03T13:50:11;69.35;64.15;83.14;;
74292;Laerm;62687;55.738;37.516;2022-11-03T13:52:56;69.70;64.94;80.19;;
74292;Laerm;62687;55.738;37.516;2022-11-03T13:55:39;69.50;64.78;81.28;;
74292;Laerm;62687;55.738;37.516;2022-11-03T13:58:23;69.17;65.44;75.07;;
74292;Laerm;62687;55.738;37.516;2022-11-03T14:01:07;68.53;64.15;73.82;;
74292;Laerm;62687;55.738;37.516;2022-11-03T14:03:52;69.49;64.32;74.02;;
74292;Laerm;62687;55.738;37.516;2022-11-03T14:06:36;69.44;64.57;83.82;;
74292;Laerm;62687;55.738;37.516;2022-11-03T14:09:19;69.04;64.57;73.69;;
74292;Laerm;62687;55.738;37.516;2022-11-03T14:12:04;68.48;64.36;75.64;;
74292;Laerm;62687;55.738;37.516;2022-11-03T14:15:08;68.57;64.55;76.90;;
74292;Laerm;62687;55.738;37.516;2022-11-03T14:17:53;68.53;63.58;75.04;;
74292;Laerm;62687;55.738;37.516;2022-11-03T14:20:37;68.78;64.22;80.85;;
74292;Laerm;62687;55.738;37.516;2022-11-03T14:23:21;68.44;64.70;74.55;;
74292;Laerm;62687;55.738;37.516;2022-11-03T14:26:05;68.78;64.56;72.98;;
74292;Laerm;62687;55.738;37.516;2022-11-03T14:28:49;70.01;66.48;75.31;;
74292;Laerm;62687;55.738;37.516;2022-11-03T14:31:33;70.70;66.37;76.08;;
74292;Laerm;62687;55.738;37.516;2022-11-03T14:34:18;70.44;67.00;74.49;;
74292;Laerm;62687;55.738;37.516;2022-11-03T14:37:02;69.36;65.20;73.68;;
74292;Laerm;62687;55.738;37.516;2022-11-03T14:39:46;70.71;66.41;77.46;;
74292;Laerm;62687;55.738;37.516;2022-11-03T14:42:30;71.15;65.54;80.13;;
74292;Laerm;62687;55.738;37.516;2022-11-03T14:45:14;70.08;65.81;78.60;;
74292;Laerm;62687;55.738;37.516;2022-11-03T14:47:58;70.80;67.31;75.86;;
74292;Laerm;62687;55.738;37.516;2022-11-03T14:50:42;70.17;64.63;81.55;;
74292;Laerm;62687;55.738;37.516;2022-11-03T14:53:26;69.34;64.21;78.82;;
74292;Laerm;62687;55.738;37.516;2022-11-03T14:56:10;68.59;65.17;73.15;;
74292;Laerm;62687;55.738;37.516;2022-11-03T14:58:54;68.68;64.25;74.12;;
74292;Laerm;62687;55.738;37.516;2022-11-03T15:01:38;69.72;64.51;78.34;;
74292;Laerm;62687;55.738;37.516;2022-11-03T15:04:22;70.17;66.32;74.31;;
74292;Laerm;62687;55.738;37.516;2022-11-03T15:07:07;70.32;65.94;82.00;;
74292;Laerm;62687;55.738;37.516;2022-11-03T15:09:51;69.64;64.41;85.38;;
74292;Laerm;62687;55.738;37.516;2022-11-03T15:12:35;70.01;65.86;80.43;;
74292;Laerm;62687;55.738;37.516;2022-11-03T15:15:19;69.81;65.05;74.73;;
74292;Laerm;62687;55.738;37.516;2022-11-03T15:18:03;68.20;63.91;72.80;;
74292;Laerm;62687;55.738;37.516;2022-11-03T15:20:47;70.05;64.14;80.85;;
74292;Laerm;62687;55.738;37.516;2022-11-03T15:23:31;69.57;64.50;84.08;;
74292;Laerm;62687;55.738;37.516;2022-11-03T15:26:16;70.13;64.30;83.79;;
74292;Laerm;62687;55.738;37.516;2022-11-03T15:29:00;68.74;64.35;79.05;;
74292;Laerm;62687;55.738;37.516;2022-11-03T15:31:46;70.93;65.74;83.76;;
74292;Laerm;62687;55.738;37.516;2022-11-03T15:34:30;70.38;64.87;82.26;;
74292;Laerm;62687;55.738;37.516;2022-11-03T15:37:14;69.56;64.77;75.37;;
74292;Laerm;62687;55.738;37.516;2022-11-03T15:39:58;68.92;64.94;76.18;;
74292;Laerm;62687;55.738;37.516;2022-11-03T15:42:42;69.23;64.43;73.28;;
74292;Laerm;62687;55.738;37.516;2022-11-03T15:45:26;67.44;63.22;75.26;;
74292;Laerm;62687;55.738;37.516;2022-11-03T15:48:10;68.36;63.79;73.71;;
74292;Laerm;62687;55.738;37.516;2022-11-03T15:50:54;68.78;64.02;72.77;;
74292;Laerm;62687;55.738;37.516;2022-11-03T15:53:38;70.88;66.19;85.25;;
74292;Laerm;62687;55.738;37.516;2022-11-03T15:56:22;70.07;65.46;73.86;;
74292;Laerm;62687;55.738;37.516;2022-11-03T15:59:06;69.57;64.58;80.99;;
74292;Laerm;62687;55.738;37.516;2022-11-03T16:01:50;69.86;65.40;77.67;;
74292;Laerm;62687;55.738;37.516;2022-11-03T16:04:34;69.65;65.34;76.41;;
74292;Laerm;62687;55.738;37.516;2022-11-03T16:07:18;68.85;64.23;75.05;;